sensor_id;sensor_type;location;lat;lon;timestamp;P1;durP1;ratioP1;P2;durP2;ratioP2
70270;SDS011;57680;54.292;18.598;2023-01-24T00:01:24;14.03;;;6.40;;
70270;SDS011;57680;54.292;18.598;2023-01-24T00:03:49;14.77;;;6.93;;
70270;SDS011;57680;54.292;18.598;2023-01-24T00:06:15;13.97;;;6.87;;
70270;SDS011;57680;54.292;18.598;2023-01-24T00:08:41;13.03;;;6.30;;
70270;SDS011;57680;54.292;18.598;2023-01-24T00:11:08;15.35;;;6.93;;
70270;SDS011;57680;54.292;18.598;2023-01-24T00:13:35;17.50;;;7.95;;
70270;SDS011;57680;54.292;18.598;2023-01-24T00:18:30;18.33;;;7.50;;
70270;SDS011;57680;54.292;18.598;2023-01-24T00:21:17;27.80;;;11.27;;
70270;SDS011;57680;54.292;18.598;2023-01-24T00:23:45;21.55;;;8.43;;
70270;SDS011;57680;54.292;18.598;2023-01-24T00:26:12;23.50;;;8.32;;
70270;SDS011;57680;54.292;18.598;2023-01-24T00:28:38;15.23;;;5.25;;
70270;SDS011;57680;54.292;18.598;2023-01-24T00:31:04;13.77;;;5.80;;
70270;SDS011;57680;54.292;18.598;2023-01-24T00:33:30;13.82;;;6.25;;
70270;SDS011;57680;54.292;18.598;2023-01-24T00:35:56;12.80;;;5.22;;
70270;SDS011;57680;54.292;18.598;2023-01-24T00:38:21;11.70;;;5.50;;
70270;SDS011;57680;54.292;18.598;2023-01-24T00:40:47;13.57;;;5.80;;
70270;SDS011;57680;54.292;18.598;2023-01-24T00:43:13;12.20;;;5.30;;
70270;SDS011;57680;54.292;18.598;2023-01-24T00:45:39;12.90;;;4.65;;
70270;SDS011;57680;54.292;18.598;2023-01-24T00:48:05;11.83;;;4.83;;
70270;SDS011;57680;54.292;18.598;2023-01-24T00:50:32;11.95;;;4.97;;
70270;SDS011;57680;54.292;18.598;2023-01-24T00:53:00;8.23;;;4.20;;
70270;SDS011;57680;54.292;18.598;2023-01-24T00:55:26;10.27;;;4.30;;
70270;SDS011;57680;54.292;18.598;2023-01-24T00:57:52;10.63;;;4.40;;
70270;SDS011;57680;54.292;18.598;2023-01-24T01:00:18;11.52;;;5.00;;
70270;SDS011;57680;54.292;18.598;2023-01-24T01:02:44;14.30;;;5.03;;
70270;SDS011;57680;54.292;18.598;2023-01-24T01:05:10;13.23;;;5.10;;
70270;SDS011;57680;54.292;18.598;2023-01-24T01:07:35;9.83;;;4.53;;
70270;SDS011;57680;54.292;18.598;2023-01-24T01:10:01;10.38;;;4.22;;
70270;SDS011;57680;54.292;18.598;2023-01-24T01:12:27;23.67;;;5.17;;
70270;SDS011;57680;54.292;18.598;2023-01-24T01:14:52;10.98;;;4.15;;
70270;SDS011;57680;54.292;18.598;2023-01-24T01:17:17;11.13;;;4.40;;
70270;SDS011;57680;54.292;18.598;2023-01-24T01:19:43;9.87;;;4.13;;
70270;SDS011;57680;54.292;18.598;2023-01-24T01:22:08;11.37;;;4.50;;
70270;SDS011;57680;54.292;18.598;2023-01-24T01:24:34;11.27;;;4.87;;
70270;SDS011;57680;54.292;18.598;2023-01-24T01:26:59;11.82;;;4.60;;
70270;SDS011;57680;54.292;18.598;2023-01-24T01:29:25;11.23;;;4.60;;
70270;SDS011;57680;54.292;18.598;2023-01-24T01:31:50;9.03;;;4.23;;
70270;SDS011;57680;54.292;18.598;2023-01-24T01:34:16;10.80;;;4.95;;
70270;SDS011;57680;54.292;18.598;2023-01-24T01:36:41;13.67;;;4.60;;
70270;SDS011;57680;54.292;18.598;2023-01-24T01:39:07;11.43;;;4.37;;
70270;SDS011;57680;54.292;18.598;2023-01-24T01:41:32;10.30;;;4.50;;
70270;SDS011;57680;54.292;18.598;2023-01-24T01:47:01;8.25;;;4.05;;
70270;SDS011;57680;54.292;18.598;2023-01-24T01:49:58;11.00;;;4.60;;
70270;SDS011;57680;54.292;18.598;2023-01-24T01:52:25;11.05;;;4.43;;
70270;SDS011;57680;54.292;18.598;2023-01-24T01:54:55;10.90;;;4.07;;
70270;SDS011;57680;54.292;18.598;2023-01-24T01:57:26;10.73;;;4.18;;
70270;SDS011;57680;54.292;18.598;2023-01-24T01:59:55;10.63;;;4.65;;
70270;SDS011;57680;54.292;18.598;2023-01-24T02:02:22;9.07;;;4.20;;
70270;SDS011;57680;54.292;18.598;2023-01-24T02:04:50;9.00;;;4.20;;
70270;SDS011;57680;54.292;18.598;2023-01-24T02:07:24;10.63;;;4.25;;
70270;SDS011;57680;54.292;18.598;2023-01-24T02:09:54;9.68;;;4.13;;
70270;SDS011;57680;54.292;18.598;2023-01-24T02:12:25;10.07;;;4.20;;
70270;SDS011;57680;54.292;18.598;2023-01-24T02:14:58;9.50;;;4.40;;
70270;SDS011;57680;54.292;18.598;2023-01-24T02:17:46;10.38;;;4.10;;
70270;SDS011;57680;54.292;18.598;2023-01-24T02:28:15;9.30;;;3.65;;
70270;SDS011;57680;54.292;18.598;2023-01-24T02:30:41;8.43;;;3.33;;
70270;SDS011;57680;54.292;18.598;2023-01-24T02:33:11;8.23;;;3.70;;
70270;SDS011;57680;54.292;18.598;2023-01-24T02:35:39;10.93;;;4.03;;
70270;SDS011;57680;54.292;18.598;2023-01-24T02:38:06;9.93;;;3.88;;
70270;SDS011;57680;54.292;18.598;2023-01-24T02:41:02;8.73;;;3.60;;
70270;SDS011;57680;54.292;18.598;2023-01-24T02:43:31;8.43;;;3.72;;
70270;SDS011;57680;54.292;18.598;2023-01-24T02:46:01;9.15;;;3.63;;
70270;SDS011;57680;54.292;18.598;2023-01-24T02:48:27;10.30;;;4.40;;
70270;SDS011;57680;54.292;18.598;2023-01-24T02:50:53;11.30;;;4.33;;
70270;SDS011;57680;54.292;18.598;2023-01-24T02:53:36;10.30;;;4.55;;
70270;SDS011;57680;54.292;18.598;2023-01-24T02:56:05;8.18;;;3.55;;
70270;SDS011;57680;54.292;18.598;2023-01-24T02:58:51;10.00;;;3.38;;
70270;SDS011;57680;54.292;18.598;2023-01-24T03:01:17;8.27;;;3.10;;
70270;SDS011;57680;54.292;18.598;2023-01-24T03:03:44;10.13;;;3.83;;
70270;SDS011;57680;54.292;18.598;2023-01-24T03:06:11;9.85;;;4.00;;
70270;SDS011;57680;54.292;18.598;2023-01-24T03:08:38;9.30;;;3.85;;
70270;SDS011;57680;54.292;18.598;2023-01-24T03:11:04;8.40;;;3.53;;
70270;SDS011;57680;54.292;18.598;2023-01-24T03:13:30;8.45;;;3.88;;
70270;SDS011;57680;54.292;18.598;2023-01-24T03:16:17;9.80;;;4.28;;
70270;SDS011;57680;54.292;18.598;2023-01-24T03:19:01;8.90;;;4.13;;
70270;SDS011;57680;54.292;18.598;2023-01-24T03:21:48;9.88;;;4.18;;
70270;SDS011;57680;54.292;18.598;2023-01-24T03:24:32;10.02;;;4.30;;
70270;SDS011;57680;54.292;18.598;2023-01-24T03:27:16;11.57;;;4.63;;
70270;SDS011;57680;54.292;18.598;2023-01-24T03:30:01;8.38;;;3.28;;
70270;SDS011;57680;54.292;18.598;2023-01-24T03:32:46;11.05;;;3.83;;
70270;SDS011;57680;54.292;18.598;2023-01-24T03:35:30;8.30;;;3.83;;
70270;SDS011;57680;54.292;18.598;2023-01-24T03:37:56;10.48;;;4.28;;
70270;SDS011;57680;54.292;18.598;2023-01-24T03:40:43;10.18;;;4.40;;
70270;SDS011;57680;54.292;18.598;2023-01-24T03:43:09;11.60;;;4.80;;
70270;SDS011;57680;54.292;18.598;2023-01-24T03:45:35;10.32;;;4.45;;
70270;SDS011;57680;54.292;18.598;2023-01-24T03:48:03;12.27;;;5.27;;
70270;SDS011;57680;54.292;18.598;2023-01-24T03:50:40;13.40;;;5.20;;
70270;SDS011;57680;54.292;18.598;2023-01-24T03:53:27;12.48;;;5.57;;
70270;SDS011;57680;54.292;18.598;2023-01-24T03:55:54;15.65;;;5.78;;
70270;SDS011;57680;54.292;18.598;2023-01-24T03:58:28;13.15;;;6.07;;
70270;SDS011;57680;54.292;18.598;2023-01-24T04:00:54;12.63;;;5.60;;
70270;SDS011;57680;54.292;18.598;2023-01-24T04:03:20;13.35;;;6.05;;
70270;SDS011;57680;54.292;18.598;2023-01-24T04:05:46;13.30;;;5.65;;
70270;SDS011;57680;54.292;18.598;2023-01-24T04:08:13;12.68;;;5.88;;
70270;SDS011;57680;54.292;18.598;2023-01-24T04:10:38;14.53;;;6.20;;
70270;SDS011;57680;54.292;18.598;2023-01-24T04:13:04;15.80;;;6.88;;
70270;SDS011;57680;54.292;18.598;2023-01-24T04:15:30;13.17;;;5.70;;
70270;SDS011;57680;54.292;18.598;2023-01-24T04:17:57;15.00;;;5.55;;
70270;SDS011;57680;54.292;18.598;2023-01-24T04:20:24;12.10;;;5.57;;
70270;SDS011;57680;54.292;18.598;2023-01-24T04:22:51;14.90;;;6.07;;
70270;SDS011;57680;54.292;18.598;2023-01-24T04:25:17;13.73;;;5.75;;
70270;SDS011;57680;54.292;18.598;2023-01-24T04:27:43;13.27;;;6.30;;
70270;SDS011;57680;54.292;18.598;2023-01-24T04:30:09;13.70;;;6.13;;
70270;SDS011;57680;54.292;18.598;2023-01-24T04:32:36;14.00;;;5.53;;
70270;SDS011;57680;54.292;18.598;2023-01-24T04:35:02;12.17;;;6.00;;
70270;SDS011;57680;54.292;18.598;2023-01-24T04:37:28;12.65;;;6.25;;
70270;SDS011;57680;54.292;18.598;2023-01-24T04:39:55;14.65;;;6.07;;
70270;SDS011;57680;54.292;18.598;2023-01-24T04:42:20;13.13;;;5.80;;
70270;SDS011;57680;54.292;18.598;2023-01-24T04:44:46;14.30;;;6.23;;
70270;SDS011;57680;54.292;18.598;2023-01-24T04:47:11;12.05;;;5.03;;
70270;SDS011;57680;54.292;18.598;2023-01-24T04:49:37;14.17;;;5.80;;
70270;SDS011;57680;54.292;18.598;2023-01-24T04:52:07;12.70;;;5.85;;
70270;SDS011;57680;54.292;18.598;2023-01-24T04:54:37;11.52;;;5.10;;
70270;SDS011;57680;54.292;18.598;2023-01-24T04:57:05;10.95;;;5.05;;
70270;SDS011;57680;54.292;18.598;2023-01-24T04:59:31;11.30;;;5.07;;
70270;SDS011;57680;54.292;18.598;2023-01-24T05:01:57;13.93;;;5.70;;
70270;SDS011;57680;54.292;18.598;2023-01-24T05:04:22;13.87;;;6.13;;
70270;SDS011;57680;54.292;18.598;2023-01-24T05:06:48;13.37;;;6.60;;
70270;SDS011;57680;54.292;18.598;2023-01-24T05:09:13;12.33;;;5.73;;
70270;SDS011;57680;54.292;18.598;2023-01-24T05:11:39;13.57;;;6.40;;
70270;SDS011;57680;54.292;18.598;2023-01-24T05:14:04;14.37;;;6.57;;
70270;SDS011;57680;54.292;18.598;2023-01-24T05:16:32;11.00;;;5.32;;
70270;SDS011;57680;54.292;18.598;2023-01-24T05:18:57;14.00;;;5.83;;
70270;SDS011;57680;54.292;18.598;2023-01-24T05:21:23;16.77;;;6.60;;
70270;SDS011;57680;54.292;18.598;2023-01-24T05:23:49;16.27;;;6.77;;
70270;SDS011;57680;54.292;18.598;2023-01-24T05:26:16;16.23;;;7.25;;
70270;SDS011;57680;54.292;18.598;2023-01-24T05:28:42;14.05;;;6.57;;
70270;SDS011;57680;54.292;18.598;2023-01-24T05:31:08;16.73;;;6.90;;
70270;SDS011;57680;54.292;18.598;2023-01-24T05:33:34;12.50;;;5.13;;
70270;SDS011;57680;54.292;18.598;2023-01-24T05:36:04;11.98;;;5.28;;
70270;SDS011;57680;54.292;18.598;2023-01-24T05:38:31;15.73;;;7.30;;
70270;SDS011;57680;54.292;18.598;2023-01-24T05:41:01;14.52;;;5.70;;
70270;SDS011;57680;54.292;18.598;2023-01-24T05:43:29;18.57;;;7.27;;
70270;SDS011;57680;54.292;18.598;2023-01-24T05:46:02;16.00;;;7.43;;
70270;SDS011;57680;54.292;18.598;2023-01-24T05:48:32;18.92;;;8.40;;
70270;SDS011;57680;54.292;18.598;2023-01-24T05:50:58;19.73;;;8.05;;
70270;SDS011;57680;54.292;18.598;2023-01-24T05:53:26;15.17;;;6.23;;
70270;SDS011;57680;54.292;18.598;2023-01-24T05:56:02;14.68;;;6.50;;
70270;SDS011;57680;54.292;18.598;2023-01-24T05:58:32;18.63;;;7.93;;
70270;SDS011;57680;54.292;18.598;2023-01-24T06:00:59;18.95;;;8.73;;
70270;SDS011;57680;54.292;18.598;2023-01-24T06:03:25;19.33;;;8.17;;
70270;SDS011;57680;54.292;18.598;2023-01-24T06:05:52;19.65;;;8.85;;
70270;SDS011;57680;54.292;18.598;2023-01-24T06:08:18;15.32;;;6.70;;
70270;SDS011;57680;54.292;18.598;2023-01-24T06:10:45;16.30;;;7.57;;
70270;SDS011;57680;54.292;18.598;2023-01-24T06:13:11;25.60;;;9.88;;
70270;SDS011;57680;54.292;18.598;2023-01-24T06:15:37;20.48;;;8.88;;
70270;SDS011;57680;54.292;18.598;2023-01-24T06:18:03;22.40;;;9.07;;
70270;SDS011;57680;54.292;18.598;2023-01-24T06:20:30;22.02;;;8.27;;
70270;SDS011;57680;54.292;18.598;2023-01-24T06:22:56;25.52;;;10.15;;
70270;SDS011;57680;54.292;18.598;2023-01-24T06:25:27;22.85;;;10.05;;
70270;SDS011;57680;54.292;18.598;2023-01-24T06:27:53;24.75;;;9.60;;
70270;SDS011;57680;54.292;18.598;2023-01-24T06:30:19;22.57;;;9.47;;
70270;SDS011;57680;54.292;18.598;2023-01-24T06:32:57;20.65;;;8.77;;
70270;SDS011;57680;54.292;18.598;2023-01-24T06:36:19;27.42;;;10.65;;
70270;SDS011;57680;54.292;18.598;2023-01-24T06:38:46;22.58;;;9.65;;
70270;SDS011;57680;54.292;18.598;2023-01-24T06:41:15;27.10;;;9.70;;
70270;SDS011;57680;54.292;18.598;2023-01-24T06:43:45;24.58;;;9.18;;
70270;SDS011;57680;54.292;18.598;2023-01-24T06:46:11;21.52;;;9.35;;
70270;SDS011;57680;54.292;18.598;2023-01-24T06:48:38;16.40;;;6.37;;
70270;SDS011;57680;54.292;18.598;2023-01-24T06:51:04;17.17;;;7.55;;
70270;SDS011;57680;54.292;18.598;2023-01-24T06:53:31;20.02;;;9.13;;
70270;SDS011;57680;54.292;18.598;2023-01-24T06:55:57;20.03;;;8.27;;
70270;SDS011;57680;54.292;18.598;2023-01-24T06:58:22;22.23;;;9.50;;
70270;SDS011;57680;54.292;18.598;2023-01-24T07:00:48;22.55;;;9.75;;
70270;SDS011;57680;54.292;18.598;2023-01-24T07:03:19;17.03;;;7.50;;
70270;SDS011;57680;54.292;18.598;2023-01-24T07:05:44;22.08;;;8.63;;
70270;SDS011;57680;54.292;18.598;2023-01-24T07:08:10;23.07;;;9.13;;
70270;SDS011;57680;54.292;18.598;2023-01-24T07:10:35;21.60;;;8.90;;
70270;SDS011;57680;54.292;18.598;2023-01-24T07:13:00;22.67;;;8.97;;
70270;SDS011;57680;54.292;18.598;2023-01-24T07:15:26;21.95;;;8.75;;
70270;SDS011;57680;54.292;18.598;2023-01-24T07:17:52;20.67;;;8.57;;
70270;SDS011;57680;54.292;18.598;2023-01-24T07:20:18;23.48;;;9.70;;
70270;SDS011;57680;54.292;18.598;2023-01-24T07:22:43;20.40;;;7.87;;
70270;SDS011;57680;54.292;18.598;2023-01-24T07:25:17;18.90;;;7.95;;
70270;SDS011;57680;54.292;18.598;2023-01-24T07:27:44;20.30;;;8.90;;
70270;SDS011;57680;54.292;18.598;2023-01-24T07:30:11;19.90;;;8.27;;
70270;SDS011;57680;54.292;18.598;2023-01-24T07:32:37;20.25;;;7.57;;
70270;SDS011;57680;54.292;18.598;2023-01-24T07:35:04;24.13;;;9.80;;
70270;SDS011;57680;54.292;18.598;2023-01-24T07:37:30;25.13;;;10.57;;
70270;SDS011;57680;54.292;18.598;2023-01-24T07:39:56;21.40;;;9.45;;
70270;SDS011;57680;54.292;18.598;2023-01-24T07:42:22;26.37;;;10.47;;
70270;SDS011;57680;54.292;18.598;2023-01-24T07:44:47;22.63;;;9.60;;
70270;SDS011;57680;54.292;18.598;2023-01-24T07:47:13;24.80;;;10.03;;
70270;SDS011;57680;54.292;18.598;2023-01-24T07:49:38;23.73;;;10.00;;
70270;SDS011;57680;54.292;18.598;2023-01-24T07:52:03;20.17;;;9.10;;
70270;SDS011;57680;54.292;18.598;2023-01-24T07:54:29;23.33;;;10.00;;
70270;SDS011;57680;54.292;18.598;2023-01-24T07:56:54;19.57;;;9.00;;
70270;SDS011;57680;54.292;18.598;2023-01-24T07:59:21;21.03;;;9.13;;
70270;SDS011;57680;54.292;18.598;2023-01-24T08:01:47;20.15;;;8.70;;
70270;SDS011;57680;54.292;18.598;2023-01-24T08:04:14;20.70;;;9.25;;
70270;SDS011;57680;54.292;18.598;2023-01-24T08:06:39;22.47;;;8.87;;
70270;SDS011;57680;54.292;18.598;2023-01-24T08:09:28;14.48;;;6.63;;
70270;SDS011;57680;54.292;18.598;2023-01-24T08:11:54;21.38;;;9.32;;
70270;SDS011;57680;54.292;18.598;2023-01-24T08:14:20;21.73;;;9.30;;
70270;SDS011;57680;54.292;18.598;2023-01-24T08:16:46;21.03;;;9.43;;
70270;SDS011;57680;54.292;18.598;2023-01-24T08:19:12;20.73;;;8.57;;
70270;SDS011;57680;54.292;18.598;2023-01-24T08:21:38;24.33;;;9.67;;
70270;SDS011;57680;54.292;18.598;2023-01-24T08:24:03;24.37;;;10.40;;
70270;SDS011;57680;54.292;18.598;2023-01-24T08:26:29;24.53;;;10.23;;
70270;SDS011;57680;54.292;18.598;2023-01-24T08:28:54;22.57;;;9.63;;
70270;SDS011;57680;54.292;18.598;2023-01-24T08:31:20;21.95;;;9.20;;
70270;SDS011;57680;54.292;18.598;2023-01-24T08:33:45;21.73;;;9.53;;
70270;SDS011;57680;54.292;18.598;2023-01-24T08:36:10;20.80;;;9.17;;
70270;SDS011;57680;54.292;18.598;2023-01-24T08:38:36;21.23;;;9.70;;
70270;SDS011;57680;54.292;18.598;2023-01-24T08:41:04;21.73;;;9.50;;
70270;SDS011;57680;54.292;18.598;2023-01-24T08:43:30;25.67;;;10.40;;
70270;SDS011;57680;54.292;18.598;2023-01-24T08:45:56;23.65;;;10.25;;
70270;SDS011;57680;54.292;18.598;2023-01-24T08:48:21;25.73;;;10.73;;
70270;SDS011;57680;54.292;18.598;2023-01-24T08:50:47;24.90;;;10.53;;
70270;SDS011;57680;54.292;18.598;2023-01-24T08:53:12;22.67;;;8.97;;
70270;SDS011;57680;54.292;18.598;2023-01-24T08:55:40;25.67;;;10.30;;
70270;SDS011;57680;54.292;18.598;2023-01-24T08:58:06;24.37;;;10.13;;
70270;SDS011;57680;54.292;18.598;2023-01-24T09:00:31;26.00;;;10.83;;
70270;SDS011;57680;54.292;18.598;2023-01-24T09:02:57;23.17;;;9.77;;
70270;SDS011;57680;54.292;18.598;2023-01-24T09:05:25;23.17;;;9.57;;
70270;SDS011;57680;54.292;18.598;2023-01-24T09:07:51;21.30;;;9.77;;
70270;SDS011;57680;54.292;18.598;2023-01-24T09:10:17;23.47;;;10.07;;
70270;SDS011;57680;54.292;18.598;2023-01-24T09:12:43;21.98;;;9.52;;
70270;SDS011;57680;54.292;18.598;2023-01-24T09:15:08;22.20;;;9.80;;
70270;SDS011;57680;54.292;18.598;2023-01-24T09:17:34;24.90;;;9.27;;
70270;SDS011;57680;54.292;18.598;2023-01-24T09:20:00;26.10;;;9.60;;
70270;SDS011;57680;54.292;18.598;2023-01-24T09:22:26;19.47;;;8.67;;
70270;SDS011;57680;54.292;18.598;2023-01-24T09:24:51;20.40;;;8.90;;
70270;SDS011;57680;54.292;18.598;2023-01-24T09:27:17;18.03;;;7.73;;
70270;SDS011;57680;54.292;18.598;2023-01-24T09:29:42;19.93;;;8.83;;
70270;SDS011;57680;54.292;18.598;2023-01-24T09:32:08;19.25;;;8.50;;
70270;SDS011;57680;54.292;18.598;2023-01-24T09:34:33;19.93;;;8.00;;
70270;SDS011;57680;54.292;18.598;2023-01-24T09:36:59;21.33;;;8.80;;
70270;SDS011;57680;54.292;18.598;2023-01-24T09:39:24;20.42;;;8.25;;
70270;SDS011;57680;54.292;18.598;2023-01-24T09:42:03;20.50;;;8.77;;
70270;SDS011;57680;54.292;18.598;2023-01-24T09:50:23;20.17;;;8.70;;
70270;SDS011;57680;54.292;18.598;2023-01-24T09:52:53;14.93;;;6.85;;
70270;SDS011;57680;54.292;18.598;2023-01-24T10:00:53;18.90;;;8.80;;
70270;SDS011;57680;54.292;18.598;2023-01-24T10:03:23;19.97;;;7.70;;
70270;SDS011;57680;54.292;18.598;2023-01-24T10:05:50;18.90;;;8.25;;
70270;SDS011;57680;54.292;18.598;2023-01-24T10:09:04;23.75;;;8.40;;
70270;SDS011;57680;54.292;18.598;2023-01-24T10:11:18;18.17;;;7.78;;
70270;SDS011;57680;54.292;18.598;2023-01-24T10:19:56;21.90;;;8.65;;
70270;SDS011;57680;54.292;18.598;2023-01-24T10:25:25;17.55;;;7.72;;
70270;SDS011;57680;54.292;18.598;2023-01-24T10:27:54;17.15;;;6.80;;
70270;SDS011;57680;54.292;18.598;2023-01-24T10:33:15;20.85;;;8.50;;
70270;SDS011;57680;54.292;18.598;2023-01-24T10:38:37;17.33;;;7.85;;
70270;SDS011;57680;54.292;18.598;2023-01-24T10:41:13;21.23;;;9.17;;
70270;SDS011;57680;54.292;18.598;2023-01-24T10:43:42;25.52;;;10.30;;
70270;SDS011;57680;54.292;18.598;2023-01-24T10:48:57;15.38;;;7.03;;
70270;SDS011;57680;54.292;18.598;2023-01-24T10:51:25;18.33;;;7.90;;
70270;SDS011;57680;54.292;18.598;2023-01-24T10:53:50;18.13;;;7.68;;
70270;SDS011;57680;54.292;18.598;2023-01-24T10:56:20;22.27;;;9.57;;
70270;SDS011;57680;54.292;18.598;2023-01-24T11:01:36;24.60;;;10.90;;
70270;SDS011;57680;54.292;18.598;2023-01-24T11:04:19;25.88;;;11.05;;
70270;SDS011;57680;54.292;18.598;2023-01-24T11:06:47;26.67;;;10.38;;
70270;SDS011;57680;54.292;18.598;2023-01-24T11:09:15;25.38;;;10.88;;
70270;SDS011;57680;54.292;18.598;2023-01-24T11:11:53;26.35;;;10.73;;
70270;SDS011;57680;54.292;18.598;2023-01-24T11:14:30;32.50;;;11.10;;
70270;SDS011;57680;54.292;18.598;2023-01-24T11:17:00;27.30;;;10.52;;
70270;SDS011;57680;54.292;18.598;2023-01-24T11:22:21;23.40;;;9.03;;
70270;SDS011;57680;54.292;18.598;2023-01-24T11:24:48;27.70;;;10.98;;
70270;SDS011;57680;54.292;18.598;2023-01-24T11:27:18;30.08;;;11.57;;
70270;SDS011;57680;54.292;18.598;2023-01-24T11:29:45;24.20;;;9.83;;
70270;SDS011;57680;54.292;18.598;2023-01-24T11:35:32;23.35;;;9.52;;
70270;SDS011;57680;54.292;18.598;2023-01-24T11:48:59;23.98;;;9.25;;
70270;SDS011;57680;54.292;18.598;2023-01-24T11:54:23;22.88;;;8.90;;
70270;SDS011;57680;54.292;18.598;2023-01-24T11:56:59;23.87;;;9.67;;
70270;SDS011;57680;54.292;18.598;2023-01-24T12:02:43;22.25;;;8.45;;
70270;SDS011;57680;54.292;18.598;2023-01-24T12:08:10;29.85;;;10.57;;
70270;SDS011;57680;54.292;18.598;2023-01-24T12:16:05;24.13;;;9.50;;
70270;SDS011;57680;54.292;18.598;2023-01-24T12:21:22;27.65;;;10.43;;
70270;SDS011;57680;54.292;18.598;2023-01-24T12:26:34;27.60;;;10.88;;
70270;SDS011;57680;54.292;18.598;2023-01-24T12:29:15;27.25;;;11.38;;
70270;SDS011;57680;54.292;18.598;2023-01-24T12:31:58;25.38;;;9.75;;
70270;SDS011;57680;54.292;18.598;2023-01-24T12:34:31;24.58;;;10.30;;
70270;SDS011;57680;54.292;18.598;2023-01-24T12:37:20;29.00;;;11.13;;
70270;SDS011;57680;54.292;18.598;2023-01-24T12:45:56;24.15;;;9.43;;
70270;SDS011;57680;54.292;18.598;2023-01-24T12:48:34;24.38;;;9.70;;
70270;SDS011;57680;54.292;18.598;2023-01-24T12:51:31;27.97;;;10.70;;
70270;SDS011;57680;54.292;18.598;2023-01-24T12:54:06;26.02;;;10.05;;
70270;SDS011;57680;54.292;18.598;2023-01-24T12:59:39;28.48;;;10.73;;
70270;SDS011;57680;54.292;18.598;2023-01-24T13:10:42;44.65;;;11.50;;
70270;SDS011;57680;54.292;18.598;2023-01-24T13:13:32;30.10;;;11.80;;
70270;SDS011;57680;54.292;18.598;2023-01-24T13:16:05;32.97;;;11.60;;
70270;SDS011;57680;54.292;18.598;2023-01-24T13:18:51;30.95;;;11.82;;
70270;SDS011;57680;54.292;18.598;2023-01-24T13:21:51;32.90;;;12.30;;
70270;SDS011;57680;54.292;18.598;2023-01-24T13:25:01;34.00;;;12.15;;
70270;SDS011;57680;54.292;18.598;2023-01-24T13:27:30;33.20;;;12.25;;
70270;SDS011;57680;54.292;18.598;2023-01-24T13:32:47;33.05;;;12.93;;
70270;SDS011;57680;54.292;18.598;2023-01-24T13:35:19;32.45;;;11.27;;
70270;SDS011;57680;54.292;18.598;2023-01-24T13:37:51;31.23;;;12.38;;
70270;SDS011;57680;54.292;18.598;2023-01-24T13:40:31;32.92;;;12.32;;
70270;SDS011;57680;54.292;18.598;2023-01-24T13:43:00;33.63;;;12.80;;
70270;SDS011;57680;54.292;18.598;2023-01-24T13:56:23;34.90;;;12.37;;
70270;SDS011;57680;54.292;18.598;2023-01-24T13:58:50;35.50;;;13.30;;
70270;SDS011;57680;54.292;18.598;2023-01-24T14:01:17;38.28;;;13.70;;
70270;SDS011;57680;54.292;18.598;2023-01-24T14:03:52;32.97;;;12.50;;
70270;SDS011;57680;54.292;18.598;2023-01-24T14:06:25;32.05;;;12.20;;
70270;SDS011;57680;54.292;18.598;2023-01-24T14:09:04;32.78;;;11.68;;
70270;SDS011;57680;54.292;18.598;2023-01-24T14:11:39;30.67;;;11.57;;
70270;SDS011;57680;54.292;18.598;2023-01-24T14:14:29;32.05;;;11.68;;
70270;SDS011;57680;54.292;18.598;2023-01-24T14:17:00;29.77;;;11.50;;
70270;SDS011;57680;54.292;18.598;2023-01-24T14:19:31;27.42;;;11.48;;
70270;SDS011;57680;54.292;18.598;2023-01-24T14:27:17;30.55;;;10.52;;
70270;SDS011;57680;54.292;18.598;2023-01-24T14:29:47;28.97;;;10.83;;
70270;SDS011;57680;54.292;18.598;2023-01-24T14:32:18;30.48;;;10.90;;
70270;SDS011;57680;54.292;18.598;2023-01-24T14:37:35;31.90;;;10.70;;
70270;SDS011;57680;54.292;18.598;2023-01-24T14:42:47;32.70;;;11.82;;
70270;SDS011;57680;54.292;18.598;2023-01-24T14:45:24;25.70;;;10.20;;
70270;SDS011;57680;54.292;18.598;2023-01-24T14:47:52;24.43;;;9.67;;
70270;SDS011;57680;54.292;18.598;2023-01-24T14:50:28;28.48;;;10.98;;
70270;SDS011;57680;54.292;18.598;2023-01-24T14:52:58;29.00;;;11.07;;
70270;SDS011;57680;54.292;18.598;2023-01-24T14:55:44;28.90;;;10.82;;
70270;SDS011;57680;54.292;18.598;2023-01-24T14:58:13;33.70;;;11.33;;
70270;SDS011;57680;54.292;18.598;2023-01-24T15:00:38;30.80;;;11.63;;
70270;SDS011;57680;54.292;18.598;2023-01-24T15:03:04;28.48;;;10.57;;
70270;SDS011;57680;54.292;18.598;2023-01-24T15:05:34;30.23;;;11.00;;
70270;SDS011;57680;54.292;18.598;2023-01-24T15:08:03;28.58;;;10.75;;
70270;SDS011;57680;54.292;18.598;2023-01-24T15:12:58;27.30;;;10.35;;
70270;SDS011;57680;54.292;18.598;2023-01-24T15:15:27;26.92;;;10.40;;
70270;SDS011;57680;54.292;18.598;2023-01-24T15:17:59;27.57;;;9.43;;
70270;SDS011;57680;54.292;18.598;2023-01-24T15:20:26;27.75;;;10.10;;
70270;SDS011;57680;54.292;18.598;2023-01-24T15:22:53;26.85;;;10.20;;
70270;SDS011;57680;54.292;18.598;2023-01-24T15:25:28;25.60;;;9.52;;
70270;SDS011;57680;54.292;18.598;2023-01-24T15:27:54;27.42;;;10.35;;
70270;SDS011;57680;54.292;18.598;2023-01-24T15:30:22;26.87;;;10.13;;
70270;SDS011;57680;54.292;18.598;2023-01-24T15:38:10;27.15;;;10.15;;
70270;SDS011;57680;54.292;18.598;2023-01-24T15:40:54;30.02;;;10.40;;
70270;SDS011;57680;54.292;18.598;2023-01-24T15:43:27;33.10;;;12.60;;
70270;SDS011;57680;54.292;18.598;2023-01-24T15:51:41;26.42;;;10.43;;
70270;SDS011;57680;54.292;18.598;2023-01-24T15:54:12;28.13;;;10.57;;
70270;SDS011;57680;54.292;18.598;2023-01-24T15:56:39;30.37;;;10.90;;
70270;SDS011;57680;54.292;18.598;2023-01-24T15:59:16;29.58;;;10.65;;
70270;SDS011;57680;54.292;18.598;2023-01-24T16:01:43;23.73;;;9.95;;
70270;SDS011;57680;54.292;18.598;2023-01-24T16:04:15;25.13;;;10.20;;
70270;SDS011;57680;54.292;18.598;2023-01-24T16:06:45;27.30;;;9.85;;
70270;SDS011;57680;54.292;18.598;2023-01-24T16:09:11;27.67;;;9.95;;
70270;SDS011;57680;54.292;18.598;2023-01-24T16:11:38;25.00;;;9.95;;
70270;SDS011;57680;54.292;18.598;2023-01-24T16:14:05;28.40;;;10.83;;
70270;SDS011;57680;54.292;18.598;2023-01-24T16:16:35;24.60;;;9.85;;
70270;SDS011;57680;54.292;18.598;2023-01-24T16:19:01;25.35;;;9.25;;
70270;SDS011;57680;54.292;18.598;2023-01-24T16:21:26;25.23;;;9.37;;
70270;SDS011;57680;54.292;18.598;2023-01-24T16:23:52;28.97;;;10.03;;
70270;SDS011;57680;54.292;18.598;2023-01-24T16:26:20;28.13;;;9.87;;
70270;SDS011;57680;54.292;18.598;2023-01-24T16:28:48;31.63;;;11.57;;
70270;SDS011;57680;54.292;18.598;2023-01-24T16:31:13;30.25;;;11.93;;
70270;SDS011;57680;54.292;18.598;2023-01-24T16:33:39;29.20;;;11.67;;
70270;SDS011;57680;54.292;18.598;2023-01-24T16:36:05;29.40;;;12.02;;
70270;SDS011;57680;54.292;18.598;2023-01-24T16:38:30;31.63;;;12.93;;
70270;SDS011;57680;54.292;18.598;2023-01-24T16:40:56;35.20;;;13.45;;
70270;SDS011;57680;54.292;18.598;2023-01-24T16:43:22;41.40;;;15.30;;
70270;SDS011;57680;54.292;18.598;2023-01-24T16:45:49;47.28;;;16.85;;
70270;SDS011;57680;54.292;18.598;2023-01-24T16:48:16;39.97;;;15.47;;
70270;SDS011;57680;54.292;18.598;2023-01-24T16:50:42;42.10;;;15.50;;